sensor_id;sensor_type;location;lat;lon;timestamp;P1;durP1;ratioP1;P2;durP2;ratioP2
11394;SDS011;5753;54.402;10.220;2022-09-17T00:02:04;25.67;;;5.25;;
11394;SDS011;5753;54.402;10.220;2022-09-17T00:04:31;26.20;;;5.35;;
11394;SDS011;5753;54.402;10.220;2022-09-17T00:06:58;19.67;;;5.47;;
11394;SDS011;5753;54.402;10.220;2022-09-17T00:09:24;16.63;;;3.63;;
11394;SDS011;5753;54.402;10.220;2022-09-17T00:11:50;15.43;;;5.93;;
11394;SDS011;5753;54.402;10.220;2022-09-17T00:14:16;22.17;;;4.88;;
11394;SDS011;5753;54.402;10.220;2022-09-17T00:16:44;16.48;;;6.03;;
11394;SDS011;5753;54.402;10.220;2022-09-17T00:19:13;14.18;;;5.72;;
11394;SDS011;5753;54.402;10.220;2022-09-17T00:21:41;17.77;;;4.72;;
11394;SDS011;5753;54.402;10.220;2022-09-17T00:24:09;16.73;;;6.30;;
11394;SDS011;5753;54.402;10.220;2022-09-17T00:26:36;24.23;;;7.30;;
11394;SDS011;5753;54.402;10.220;2022-09-17T00:29:03;15.65;;;5.07;;
11394;SDS011;5753;54.402;10.220;2022-09-17T00:31:30;25.15;;;5.22;;
11394;SDS011;5753;54.402;10.220;2022-09-17T00:33:57;18.08;;;6.75;;
11394;SDS011;5753;54.402;10.220;2022-09-17T00:36:24;26.60;;;7.13;;
11394;SDS011;5753;54.402;10.220;2022-09-17T00:38:51;13.80;;;6.03;;
11394;SDS011;5753;54.402;10.220;2022-09-17T00:41:20;14.55;;;3.60;;
11394;SDS011;5753;54.402;10.220;2022-09-17T00:43:50;19.27;;;5.57;;
11394;SDS011;5753;54.402;10.220;2022-09-17T00:49:00;28.83;;;7.28;;
11394;SDS011;5753;54.402;10.220;2022-09-17T00:51:36;11.10;;;4.18;;
11394;SDS011;5753;54.402;10.220;2022-09-17T00:54:06;23.08;;;4.93;;
11394;SDS011;5753;54.402;10.220;2022-09-17T00:56:34;9.55;;;3.75;;
11394;SDS011;5753;54.402;10.220;2022-09-17T00:59:03;17.70;;;4.93;;
11394;SDS011;5753;54.402;10.220;2022-09-17T01:01:29;30.50;;;7.00;;
11394;SDS011;5753;54.402;10.220;2022-09-17T01:03:56;14.57;;;3.45;;
11394;SDS011;5753;54.402;10.220;2022-09-17T01:06:41;17.33;;;6.15;;
11394;SDS011;5753;54.402;10.220;2022-09-17T01:09:24;25.83;;;6.82;;
11394;SDS011;5753;54.402;10.220;2022-09-17T01:28:33;23.55;;;6.13;;
11394;SDS011;5753;54.402;10.220;2022-09-17T01:31:33;25.85;;;6.50;;
11394;SDS011;5753;54.402;10.220;2022-09-17T01:34:12;15.43;;;7.28;;
11394;SDS011;5753;54.402;10.220;2022-09-17T01:36:59;13.82;;;5.45;;
11394;SDS011;5753;54.402;10.220;2022-09-17T01:45:17;27.52;;;7.40;;
11394;SDS011;5753;54.402;10.220;2022-09-17T01:48:11;11.95;;;4.50;;
11394;SDS011;5753;54.402;10.220;2022-09-17T01:50:44;19.15;;;4.20;;
11394;SDS011;5753;54.402;10.220;2022-09-17T01:53:12;23.60;;;4.15;;
11394;SDS011;5753;54.402;10.220;2022-09-17T01:55:41;13.63;;;4.47;;
11394;SDS011;5753;54.402;10.220;2022-09-17T01:58:26;9.23;;;4.65;;
11394;SDS011;5753;54.402;10.220;2022-09-17T02:00:59;35.08;;;5.03;;
11394;SDS011;5753;54.402;10.220;2022-09-17T02:03:29;11.50;;;4.32;;
11394;SDS011;5753;54.402;10.220;2022-09-17T02:06:00;14.18;;;5.72;;
11394;SDS011;5753;54.402;10.220;2022-09-17T02:08:36;25.70;;;5.63;;
11394;SDS011;5753;54.402;10.220;2022-09-17T02:11:11;13.13;;;3.50;;
11394;SDS011;5753;54.402;10.220;2022-09-17T02:16:27;11.98;;;4.07;;
11394;SDS011;5753;54.402;10.220;2022-09-17T02:19:14;19.98;;;3.90;;
11394;SDS011;5753;54.402;10.220;2022-09-17T02:22:13;8.02;;;3.55;;
11394;SDS011;5753;54.402;10.220;2022-09-17T02:30:35;12.43;;;4.03;;
11394;SDS011;5753;54.402;10.220;2022-09-17T02:33:02;25.83;;;5.88;;
11394;SDS011;5753;54.402;10.220;2022-09-17T02:35:33;11.43;;;3.78;;
11394;SDS011;5753;54.402;10.220;2022-09-17T02:37:59;12.05;;;3.38;;
11394;SDS011;5753;54.402;10.220;2022-09-17T02:40:26;12.45;;;3.20;;
11394;SDS011;5753;54.402;10.220;2022-09-17T02:43:02;16.50;;;2.40;;
11394;SDS011;5753;54.402;10.220;2022-09-17T02:48:42;20.90;;;5.20;;
11394;SDS011;5753;54.402;10.220;2022-09-17T02:59:58;13.32;;;4.38;;
11394;SDS011;5753;54.402;10.220;2022-09-17T03:02:41;15.30;;;3.03;;
11394;SDS011;5753;54.402;10.220;2022-09-17T03:05:17;19.00;;;5.50;;
11394;SDS011;5753;54.402;10.220;2022-09-17T03:07:46;15.35;;;4.30;;
11394;SDS011;5753;54.402;10.220;2022-09-17T03:10:12;14.63;;;4.82;;
11394;SDS011;5753;54.402;10.220;2022-09-17T03:12:40;11.70;;;3.47;;
11394;SDS011;5753;54.402;10.220;2022-09-17T03:15:06;19.70;;;5.35;;
11394;SDS011;5753;54.402;10.220;2022-09-17T03:17:33;9.13;;;4.13;;
11394;SDS011;5753;54.402;10.220;2022-09-17T03:19:59;15.32;;;3.65;;
11394;SDS011;5753;54.402;10.220;2022-09-17T03:22:25;18.02;;;2.90;;
11394;SDS011;5753;54.402;10.220;2022-09-17T03:24:51;9.57;;;2.63;;
11394;SDS011;5753;54.402;10.220;2022-09-17T03:27:17;14.20;;;4.05;;
11394;SDS011;5753;54.402;10.220;2022-09-17T03:29:43;12.68;;;4.95;;
11394;SDS011;5753;54.402;10.220;2022-09-17T03:32:10;31.50;;;6.40;;
11394;SDS011;5753;54.402;10.220;2022-09-17T03:34:36;11.45;;;3.70;;
11394;SDS011;5753;54.402;10.220;2022-09-17T03:37:02;8.80;;;3.80;;
11394;SDS011;5753;54.402;10.220;2022-09-17T03:39:28;12.10;;;2.95;;
11394;SDS011;5753;54.402;10.220;2022-09-17T03:41:54;17.65;;;4.28;;
11394;SDS011;5753;54.402;10.220;2022-09-17T03:44:20;12.48;;;5.18;;
11394;SDS011;5753;54.402;10.220;2022-09-17T03:46:47;12.75;;;3.72;;
11394;SDS011;5753;54.402;10.220;2022-09-17T03:49:14;22.75;;;4.60;;
11394;SDS011;5753;54.402;10.220;2022-09-17T03:51:40;15.80;;;3.70;;
11394;SDS011;5753;54.402;10.220;2022-09-17T03:54:06;12.90;;;3.67;;
11394;SDS011;5753;54.402;10.220;2022-09-17T03:56:33;7.78;;;3.20;;
11394;SDS011;5753;54.402;10.220;2022-09-17T03:58:59;13.10;;;5.95;;
11394;SDS011;5753;54.402;10.220;2022-09-17T04:01:26;28.00;;;7.22;;
11394;SDS011;5753;54.402;10.220;2022-09-17T04:03:53;28.75;;;3.65;;
11394;SDS011;5753;54.402;10.220;2022-09-17T04:06:19;18.80;;;4.93;;
11394;SDS011;5753;54.402;10.220;2022-09-17T04:08:45;19.98;;;3.88;;
11394;SDS011;5753;54.402;10.220;2022-09-17T04:11:11;7.68;;;2.97;;
11394;SDS011;5753;54.402;10.220;2022-09-17T04:13:38;22.08;;;3.80;;
11394;SDS011;5753;54.402;10.220;2022-09-17T04:16:04;17.52;;;4.53;;
11394;SDS011;5753;54.402;10.220;2022-09-17T04:18:30;11.30;;;4.10;;
11394;SDS011;5753;54.402;10.220;2022-09-17T04:20:56;19.88;;;5.35;;
11394;SDS011;5753;54.402;10.220;2022-09-17T04:23:22;13.75;;;3.67;;
11394;SDS011;5753;54.402;10.220;2022-09-17T04:25:48;7.93;;;3.60;;
11394;SDS011;5753;54.402;10.220;2022-09-17T04:28:15;9.70;;;3.10;;
11394;SDS011;5753;54.402;10.220;2022-09-17T04:30:41;33.75;;;5.18;;
11394;SDS011;5753;54.402;10.220;2022-09-17T04:33:07;14.93;;;5.20;;
11394;SDS011;5753;54.402;10.220;2022-09-17T04:35:34;14.68;;;4.28;;
11394;SDS011;5753;54.402;10.220;2022-09-17T04:38:00;17.20;;;5.93;;
11394;SDS011;5753;54.402;10.220;2022-09-17T04:40:26;13.35;;;5.40;;
11394;SDS011;5753;54.402;10.220;2022-09-17T04:42:53;24.92;;;5.45;;
11394;SDS011;5753;54.402;10.220;2022-09-17T04:45:21;10.75;;;3.45;;
11394;SDS011;5753;54.402;10.220;2022-09-17T04:47:47;24.92;;;7.28;;
11394;SDS011;5753;54.402;10.220;2022-09-17T04:50:15;7.22;;;2.53;;
11394;SDS011;5753;54.402;10.220;2022-09-17T04:52:42;19.65;;;3.67;;
11394;SDS011;5753;54.402;10.220;2022-09-17T04:55:09;16.77;;;3.45;;
11394;SDS011;5753;54.402;10.220;2022-09-17T04:57:35;19.02;;;3.85;;
11394;SDS011;5753;54.402;10.220;2022-09-17T05:00:03;14.85;;;5.47;;
11394;SDS011;5753;54.402;10.220;2022-09-17T05:02:34;23.48;;;4.53;;
11394;SDS011;5753;54.402;10.220;2022-09-17T05:05:00;17.90;;;4.05;;
11394;SDS011;5753;54.402;10.220;2022-09-17T05:07:27;18.40;;;5.13;;
11394;SDS011;5753;54.402;10.220;2022-09-17T05:09:53;13.95;;;3.33;;
11394;SDS011;5753;54.402;10.220;2022-09-17T05:12:19;13.65;;;4.47;;
11394;SDS011;5753;54.402;10.220;2022-09-17T05:14:45;20.00;;;5.10;;
11394;SDS011;5753;54.402;10.220;2022-09-17T05:17:11;31.00;;;4.32;;
11394;SDS011;5753;54.402;10.220;2022-09-17T05:19:38;14.75;;;4.45;;
11394;SDS011;5753;54.402;10.220;2022-09-17T05:22:04;11.70;;;3.13;;
11394;SDS011;5753;54.402;10.220;2022-09-17T05:24:30;27.92;;;5.70;;
11394;SDS011;5753;54.402;10.220;2022-09-17T05:26:57;18.65;;;4.30;;
11394;SDS011;5753;54.402;10.220;2022-09-17T05:29:23;9.43;;;3.78;;
11394;SDS011;5753;54.402;10.220;2022-09-17T05:31:49;13.50;;;2.97;;
11394;SDS011;5753;54.402;10.220;2022-09-17T05:34:15;8.25;;;4.15;;
11394;SDS011;5753;54.402;10.220;2022-09-17T05:36:41;12.60;;;4.47;;
11394;SDS011;5753;54.402;10.220;2022-09-17T05:39:07;20.23;;;3.78;;
11394;SDS011;5753;54.402;10.220;2022-09-17T05:41:34;15.27;;;5.13;;
11394;SDS011;5753;54.402;10.220;2022-09-17T05:44:00;10.75;;;3.45;;
11394;SDS011;5753;54.402;10.220;2022-09-17T05:46:26;9.60;;;4.28;;
11394;SDS011;5753;54.402;10.220;2022-09-17T05:48:54;15.27;;;3.38;;
11394;SDS011;5753;54.402;10.220;2022-09-17T05:51:21;6.90;;;3.15;;
11394;SDS011;5753;54.402;10.220;2022-09-17T05:53:47;20.63;;;3.83;;
11394;SDS011;5753;54.402;10.220;2022-09-17T05:56:13;14.85;;;3.20;;
11394;SDS011;5753;54.402;10.220;2022-09-17T05:58:39;15.13;;;5.00;;
11394;SDS011;5753;54.402;10.220;2022-09-17T06:01:05;7.22;;;2.47;;
11394;SDS011;5753;54.402;10.220;2022-09-17T06:03:32;24.35;;;6.20;;
11394;SDS011;5753;54.402;10.220;2022-09-17T06:05:58;17.90;;;5.78;;
11394;SDS011;5753;54.402;10.220;2022-09-17T06:08:26;35.92;;;6.88;;
11394;SDS011;5753;54.402;10.220;2022-09-17T06:10:53;19.67;;;7.55;;
11394;SDS011;5753;54.402;10.220;2022-09-17T06:13:19;17.45;;;6.15;;
11394;SDS011;5753;54.402;10.220;2022-09-17T06:15:49;16.50;;;3.42;;
11394;SDS011;5753;54.402;10.220;2022-09-17T06:18:18;9.97;;;3.40;;
11394;SDS011;5753;54.402;10.220;2022-09-17T06:20:51;10.20;;;3.50;;
11394;SDS011;5753;54.402;10.220;2022-09-17T06:23:30;24.60;;;3.28;;
11394;SDS011;5753;54.402;10.220;2022-09-17T06:25:59;18.88;;;4.18;;
11394;SDS011;5753;54.402;10.220;2022-09-17T06:28:27;10.65;;;3.88;;
11394;SDS011;5753;54.402;10.220;2022-09-17T06:30:53;9.10;;;3.92;;
11394;SDS011;5753;54.402;10.220;2022-09-17T06:33:23;20.08;;;6.80;;
11394;SDS011;5753;54.402;10.220;2022-09-17T06:36:00;16.77;;;8.40;;
11394;SDS011;5753;54.402;10.220;2022-09-17T06:38:29;16.27;;;3.58;;
11394;SDS011;5753;54.402;10.220;2022-09-17T06:40:57;7.63;;;4.13;;
11394;SDS011;5753;54.402;10.220;2022-09-17T06:43:23;28.23;;;4.90;;
11394;SDS011;5753;54.402;10.220;2022-09-17T06:45:51;17.85;;;4.95;;
11394;SDS011;5753;54.402;10.220;2022-09-17T06:48:17;12.75;;;4.35;;
11394;SDS011;5753;54.402;10.220;2022-09-17T06:50:43;14.27;;;2.97;;
11394;SDS011;5753;54.402;10.220;2022-09-17T06:53:09;10.20;;;3.90;;
11394;SDS011;5753;54.402;10.220;2022-09-17T06:55:35;11.38;;;3.17;;
11394;SDS011;5753;54.402;10.220;2022-09-17T06:58:01;15.07;;;4.57;;
11394;SDS011;5753;54.402;10.220;2022-09-17T07:00:27;10.75;;;4.20;;
11394;SDS011;5753;54.402;10.220;2022-09-17T07:02:57;11.05;;;3.35;;
11394;SDS011;5753;54.402;10.220;2022-09-17T07:05:25;19.63;;;5.40;;
11394;SDS011;5753;54.402;10.220;2022-09-17T07:07:52;17.35;;;4.07;;
11394;SDS011;5753;54.402;10.220;2022-09-17T07:10:19;8.10;;;3.40;;
11394;SDS011;5753;54.402;10.220;2022-09-17T07:12:47;18.90;;;6.30;;
11394;SDS011;5753;54.402;10.220;2022-09-17T07:15:13;9.52;;;4.55;;
11394;SDS011;5753;54.402;10.220;2022-09-17T07:17:40;24.90;;;5.45;;
11394;SDS011;5753;54.402;10.220;2022-09-17T07:20:08;13.93;;;6.60;;
11394;SDS011;5753;54.402;10.220;2022-09-17T07:22:35;20.73;;;4.25;;
11394;SDS011;5753;54.402;10.220;2022-09-17T07:25:01;13.85;;;4.85;;
11394;SDS011;5753;54.402;10.220;2022-09-17T07:27:28;8.13;;;2.67;;
11394;SDS011;5753;54.402;10.220;2022-09-17T07:29:55;14.15;;;5.32;;
11394;SDS011;5753;54.402;10.220;2022-09-17T07:32:21;7.57;;;2.20;;
11394;SDS011;5753;54.402;10.220;2022-09-17T07:34:48;27.13;;;5.28;;
11394;SDS011;5753;54.402;10.220;2022-09-17T07:37:14;12.30;;;2.58;;
11394;SDS011;5753;54.402;10.220;2022-09-17T07:39:41;17.00;;;3.95;;
11394;SDS011;5753;54.402;10.220;2022-09-17T07:42:08;11.38;;;3.95;;
11394;SDS011;5753;54.402;10.220;2022-09-17T07:44:34;12.35;;;3.10;;
11394;SDS011;5753;54.402;10.220;2022-09-17T07:47:01;12.98;;;3.67;;
11394;SDS011;5753;54.402;10.220;2022-09-17T07:49:27;10.15;;;3.63;;
11394;SDS011;5753;54.402;10.220;2022-09-17T07:51:53;11.48;;;4.95;;
11394;SDS011;5753;54.402;10.220;2022-09-17T07:54:19;18.08;;;3.75;;
11394;SDS011;5753;54.402;10.220;2022-09-17T07:56:45;8.68;;;3.47;;
11394;SDS011;5753;54.402;10.220;2022-09-17T07:59:11;16.70;;;4.43;;
11394;SDS011;5753;54.402;10.220;2022-09-17T08:01:37;8.68;;;1.77;;
11394;SDS011;5753;54.402;10.220;2022-09-17T08:04:04;15.32;;;4.20;;
11394;SDS011;5753;54.402;10.220;2022-09-17T08:06:34;9.07;;;3.05;;
11394;SDS011;5753;54.402;10.220;2022-09-17T08:09:02;8.63;;;3.03;;
11394;SDS011;5753;54.402;10.220;2022-09-17T08:11:28;24.38;;;3.22;;
11394;SDS011;5753;54.402;10.220;2022-09-17T08:13:55;6.15;;;2.03;;
11394;SDS011;5753;54.402;10.220;2022-09-17T08:16:21;10.10;;;2.75;;
11394;SDS011;5753;54.402;10.220;2022-09-17T08:18:52;9.55;;;3.80;;
11394;SDS011;5753;54.402;10.220;2022-09-17T08:21:19;10.40;;;4.10;;
11394;SDS011;5753;54.402;10.220;2022-09-17T08:23:46;7.38;;;3.47;;
11394;SDS011;5753;54.402;10.220;2022-09-17T08:26:16;11.25;;;4.13;;
11394;SDS011;5753;54.402;10.220;2022-09-17T08:28:45;5.90;;;2.75;;
11394;SDS011;5753;54.402;10.220;2022-09-17T08:31:13;16.80;;;3.28;;
11394;SDS011;5753;54.402;10.220;2022-09-17T08:33:44;13.13;;;3.50;;
11394;SDS011;5753;54.402;10.220;2022-09-17T08:36:11;9.38;;;4.43;;
11394;SDS011;5753;54.402;10.220;2022-09-17T08:38:39;9.48;;;4.28;;
11394;SDS011;5753;54.402;10.220;2022-09-17T08:41:12;10.90;;;2.90;;
11394;SDS011;5753;54.402;10.220;2022-09-17T08:46:48;4.18;;;2.70;;
11394;SDS011;5753;54.402;10.220;2022-09-17T08:49:39;11.65;;;2.95;;
11394;SDS011;5753;54.402;10.220;2022-09-17T09:00:10;12.02;;;3.25;;
11394;SDS011;5753;54.402;10.220;2022-09-17T09:05:30;7.70;;;2.63;;
11394;SDS011;5753;54.402;10.220;2022-09-17T09:08:13;13.40;;;3.38;;
11394;SDS011;5753;54.402;10.220;2022-09-17T09:10:51;9.35;;;3.05;;
11394;SDS011;5753;54.402;10.220;2022-09-17T09:13:24;10.43;;;3.00;;
11394;SDS011;5753;54.402;10.220;2022-09-17T09:16:05;12.73;;;2.72;;
11394;SDS011;5753;54.402;10.220;2022-09-17T09:18:58;18.58;;;4.57;;
11394;SDS011;5753;54.402;10.220;2022-09-17T09:27:32;6.03;;;1.65;;
11394;SDS011;5753;54.402;10.220;2022-09-17T09:30:16;14.35;;;2.03;;
11394;SDS011;5753;54.402;10.220;2022-09-17T09:32:57;9.10;;;3.00;;
11394;SDS011;5753;54.402;10.220;2022-09-17T09:35:31;8.90;;;3.38;;
11394;SDS011;5753;54.402;10.220;2022-09-17T09:38:05;7.80;;;2.53;;
11394;SDS011;5753;54.402;10.220;2022-09-17T09:40:46;8.98;;;2.25;;
11394;SDS011;5753;54.402;10.220;2022-09-17T09:51:53;9.15;;;2.63;;
11394;SDS011;5753;54.402;10.220;2022-09-17T09:57:34;9.57;;;1.80;;
11394;SDS011;5753;54.402;10.220;2022-09-17T10:00:24;3.75;;;1.80;;
11394;SDS011;5753;54.402;10.220;2022-09-17T10:02:52;11.68;;;2.90;;
11394;SDS011;5753;54.402;10.220;2022-09-17T10:05:26;7.53;;;2.65;;
11394;SDS011;5753;54.402;10.220;2022-09-17T10:07:52;8.32;;;2.35;;
11394;SDS011;5753;54.402;10.220;2022-09-17T10:10:18;4.63;;;2.88;;
11394;SDS011;5753;54.402;10.220;2022-09-17T10:12:45;6.68;;;1.98;;
11394;SDS011;5753;54.402;10.220;2022-09-17T10:15:27;10.52;;;2.72;;
11394;SDS011;5753;54.402;10.220;2022-09-17T10:20:53;12.95;;;2.85;;
11394;SDS011;5753;54.402;10.220;2022-09-17T10:23:24;9.27;;;2.72;;
11394;SDS011;5753;54.402;10.220;2022-09-17T10:25:57;6.32;;;2.28;;
11394;SDS011;5753;54.402;10.220;2022-09-17T10:28:31;4.57;;;2.33;;
11394;SDS011;5753;54.402;10.220;2022-09-17T10:31:08;2.90;;;0.98;;
11394;SDS011;5753;54.402;10.220;2022-09-17T10:34:17;3.72;;;1.73;;
11394;SDS011;5753;54.402;10.220;2022-09-17T10:42:14;3.15;;;1.88;;
11394;SDS011;5753;54.402;10.220;2022-09-17T10:44:49;5.05;;;1.42;;
11394;SDS011;5753;54.402;10.220;2022-09-17T10:47:30;2.20;;;1.35;;
11394;SDS011;5753;54.402;10.220;2022-09-17T10:50:02;2.85;;;1.50;;
11394;SDS011;5753;54.402;10.220;2022-09-17T10:52:38;4.82;;;1.48;;
11394;SDS011;5753;54.402;10.220;2022-09-17T11:00:47;4.78;;;1.45;;
11394;SDS011;5753;54.402;10.220;2022-09-17T11:03:28;4.80;;;1.52;;
11394;SDS011;5753;54.402;10.220;2022-09-17T11:20:34;7.15;;;1.80;;
11394;SDS011;5753;54.402;10.220;2022-09-17T11:36:53;6.22;;;2.80;;
11394;SDS011;5753;54.402;10.220;2022-09-17T11:39:39;4.20;;;1.60;;
11394;SDS011;5753;54.402;10.220;2022-09-17T11:42:17;3.97;;;1.10;;
11394;SDS011;5753;54.402;10.220;2022-09-17T11:45:11;5.72;;;2.03;;
11394;SDS011;5753;54.402;10.220;2022-09-17T11:47:50;2.95;;;1.25;;
11394;SDS011;5753;54.402;10.220;2022-09-17T11:50:31;5.03;;;1.92;;
11394;SDS011;5753;54.402;10.220;2022-09-17T11:53:03;11.05;;;3.67;;
11394;SDS011;5753;54.402;10.220;2022-09-17T11:55:48;6.00;;;1.80;;
11394;SDS011;5753;54.402;10.220;2022-09-17T12:01:08;7.40;;;2.13;;
11394;SDS011;5753;54.402;10.220;2022-09-17T12:04:01;5.80;;;1.90;;
11394;SDS011;5753;54.402;10.220;2022-09-17T12:06:34;4.88;;;3.13;;
11394;SDS011;5753;54.402;10.220;2022-09-17T12:09:20;3.50;;;1.85;;
11394;SDS011;5753;54.402;10.220;2022-09-17T12:16:51;2.22;;;1.38;;
11394;SDS011;5753;54.402;10.220;2022-09-17T12:24:41;2.53;;;0.77;;
11394;SDS011;5753;54.402;10.220;2022-09-17T12:30:03;0.55;;;0.50;;
11394;SDS011;5753;54.402;10.220;2022-09-17T12:33:04;18.02;;;2.25;;
11394;SDS011;5753;54.402;10.220;2022-09-17T12:35:55;3.45;;;1.50;;
11394;SDS011;5753;54.402;10.220;2022-09-17T12:43:53;4.68;;;1.80;;
11394;SDS011;5753;54.402;10.220;2022-09-17T12:51:58;13.10;;;3.17;;
11394;SDS011;5753;54.402;10.220;2022-09-17T13:00:05;1.17;;;0.65;;
11394;SDS011;5753;54.402;10.220;2022-09-17T13:13:46;3.20;;;1.27;;
11394;SDS011;5753;54.402;10.220;2022-09-17T13:16:24;2.10;;;1.13;;
11394;SDS011;5753;54.402;10.220;2022-09-17T13:19:30;2.85;;;0.70;;
11394;SDS011;5753;54.402;10.220;2022-09-17T13:22:20;4.72;;;1.40;;
11394;SDS011;5753;54.402;10.220;2022-09-17T13:25:07;4.85;;;1.48;;
11394;SDS011;5753;54.402;10.220;2022-09-17T13:27:36;3.85;;;1.30;;
11394;SDS011;5753;54.402;10.220;2022-09-17T13:30:24;2.60;;;1.38;;
11394;SDS011;5753;54.402;10.220;2022-09-17T13:32:50;5.07;;;2.05;;
11394;SDS011;5753;54.402;10.220;2022-09-17T13:40:23;5.45;;;0.82;;
11394;SDS011;5753;54.402;10.220;2022-09-17T13:45:27;3.97;;;0.93;;
11394;SDS011;5753;54.402;10.220;2022-09-17T13:50:41;1.30;;;1.02;;
11394;SDS011;5753;54.402;10.220;2022-09-17T13:55:41;0.88;;;0.77;;
11394;SDS011;5753;54.402;10.220;2022-09-17T14:13:56;2.92;;;1.52;;
11394;SDS011;5753;54.402;10.220;2022-09-17T14:21:56;0.90;;;0.50;;
11394;SDS011;5753;54.402;10.220;2022-09-17T14:32:44;0.88;;;0.25;;
11394;SDS011;5753;54.402;10.220;2022-09-17T14:35:46;0.65;;;0.20;;
11394;SDS011;5753;54.402;10.220;2022-09-17T14:38:27;1.02;;;0.70;;
11394;SDS011;5753;54.402;10.220;2022-09-17T14:46:21;3.13;;;0.88;;
11394;SDS011;5753;54.402;10.220;2022-09-17T14:48:49;0.77;;;0.57;;
11394;SDS011;5753;54.402;10.220;2022-09-17T14:53:45;1.75;;;0.88;;
11394;SDS011;5753;54.402;10.220;2022-09-17T14:56:34;7.57;;;0.90;;
11394;SDS011;5753;54.402;10.220;2022-09-17T14:59:09;1.40;;;0.88;;
11394;SDS011;5753;54.402;10.220;2022-09-17T15:01:46;3.10;;;1.58;;
11394;SDS011;5753;54.402;10.220;2022-09-17T15:06:39;4.05;;;1.42;;
11394;SDS011;5753;54.402;10.220;2022-09-17T15:12:02;4.38;;;1.92;;
11394;SDS011;5753;54.402;10.220;2022-09-17T15:14:31;39.22;;;3.10;;
11394;SDS011;5753;54.402;10.220;2022-09-17T15:17:00;12.38;;;3.38;;
11394;SDS011;5753;54.402;10.220;2022-09-17T15:27:35;5.65;;;1.83;;
11394;SDS011;5753;54.402;10.220;2022-09-17T15:32:40;2.75;;;1.15;;
11394;SDS011;5753;54.402;10.220;2022-09-17T15:35:15;4.68;;;1.00;;
11394;SDS011;5753;54.402;10.220;2022-09-17T15:37:48;1.42;;;0.68;;
11394;SDS011;5753;54.402;10.220;2022-09-17T15:43:28;6.50;;;1.77;;
11394;SDS011;5753;54.402;10.220;2022-09-17T15:45:57;1.38;;;1.02;;
11394;SDS011;5753;54.402;10.220;2022-09-17T15:49:00;3.00;;;0.65;;
11394;SDS011;5753;54.402;10.220;2022-09-17T15:51:28;2.25;;;1.10;;
11394;SDS011;5753;54.402;10.220;2022-09-17T15:53:59;4.65;;;0.80;;
11394;SDS011;5753;54.402;10.220;2022-09-17T15:56:38;0.60;;;0.50;;
11394;SDS011;5753;54.402;10.220;2022-09-17T15:59:25;1.40;;;0.63;;
11394;SDS011;5753;54.402;10.220;2022-09-17T16:01:58;4.43;;;1.00;;
11394;SDS011;5753;54.402;10.220;2022-09-17T16:04:27;1.08;;;0.98;;
11394;SDS011;5753;54.402;10.220;2022-09-17T16:07:01;8.68;;;2.03;;
11394;SDS011;5753;54.402;10.220;2022-09-17T16:10:13;3.30;;;0.52;;
11394;SDS011;5753;54.402;10.220;2022-09-17T16:12:23;11.02;;;1.48;;
11394;SDS011;5753;54.402;10.220;2022-09-17T16:14:51;1.90;;;0.70;;
11394;SDS011;5753;54.402;10.220;2022-09-17T16:17:23;14.13;;;2.88;;
11394;SDS011;5753;54.402;10.220;2022-09-17T16:19:51;9.38;;;1.92;;
11394;SDS011;5753;54.402;10.220;2022-09-17T16:22:19;7.90;;;1.58;;
11394;SDS011;5753;54.402;10.220;2022-09-17T16:24:46;1.50;;;0.60;;
11394;SDS011;5753;54.402;10.220;2022-09-17T16:27:15;3.08;;;0.40;;
11394;SDS011;5753;54.402;10.220;2022-09-17T16:29:55;2.80;;;1.13;;
11394;SDS011;5753;54.402;10.220;2022-09-17T16:32:28;1.95;;;0.82;;
11394;SDS011;5753;54.402;10.220;2022-09-17T16:34:54;26.38;;;4.78;;
11394;SDS011;5753;54.402;10.220;2022-09-17T16:37:21;6.13;;;1.80;;
11394;SDS011;5753;54.402;10.220;2022-09-17T16:39:47;4.20;;;1.17;;
11394;SDS011;5753;54.402;10.220;2022-09-17T16:42:14;4.38;;;1.55;;
11394;SDS011;5753;54.402;10.220;2022-09-17T16:44:40;2.30;;;0.93;;
11394;SDS011;5753;54.402;10.220;2022-09-17T16:47:06;2.72;;;0.85;;
11394;SDS011;5753;54.402;10.220;2022-09-17T16:49:32;1.80;;;0.40;;
11394;SDS011;5753;54.402;10.220;2022-09-17T16:51:59;7.25;;;1.98;;
11394;SDS011;5753;54.402;10.220;2022-09-17T16:54:25;1.20;;;0.60;;
11394;SDS011;5753;54.402;10.220;2022-09-17T16:56:51;1.02;;;0.40;;
11394;SDS011;5753;54.402;10.220;2022-09-17T16:59:17;0.65;;;0.40;;
11394;SDS011;5753;54.402;10.220;2022-09-17T17:01:43;0.80;;;0.68;;
11394;SDS011;5753;54.402;10.220;2022-09-17T17:04:12;1.70;;;1.00;;
11394;SDS011;5753;54.402;10.220;2022-09-17T17:06:38;0.70;;;0.70;;
11394;SDS011;5753;54.402;10.220;2022-09-17T17:09:04;0.75;;;0.60;;
11394;SDS011;5753;54.402;10.220;2022-09-17T17:11:30;1.33;;;1.20;;
11394;SDS011;5753;54.402;10.220;2022-09-17T17:13:56;3.17;;;1.08;;
11394;SDS011;5753;54.402;10.220;2022-09-17T17:16:22;2.78;;;2.08;;
11394;SDS011;5753;54.402;10.220;2022-09-17T17:18:49;2.08;;;1.88;;
11394;SDS011;5753;54.402;10.220;2022-09-17T17:21:17;1.70;;;1.58;;
11394;SDS011;5753;54.402;10.220;2022-09-17T17:23:45;2.83;;;1.00;;
11394;SDS011;5753;54.402;10.220;2022-09-17T17:26:12;1.42;;;1.05;;
11394;SDS011;5753;54.402;10.220;2022-09-17T17:28:39;3.85;;;1.20;;
11394;SDS011;5753;54.402;10.220;2022-09-17T17:31:05;3.30;;;2.25;;
11394;SDS011;5753;54.402;10.220;2022-09-17T17:33:31;1.73;;;1.63;;
11394;SDS011;5753;54.402;10.220;2022-09-17T17:35:58;8.00;;;2.95;;
11394;SDS011;5753;54.402;10.220;2022-09-17T17:38:27;4.07;;;1.27;;
11394;SDS011;5753;54.402;10.220;2022-09-17T17:41:03;1.60;;;1.13;;
11394;SDS011;5753;54.402;10.220;2022-09-17T17:43:34;1.13;;;0.55;;
11394;SDS011;5753;54.402;10.220;2022-09-17T17:46:00;1.00;;;0.82;;
11394;SDS011;5753;54.402;10.220;2022-09-17T17:48:29;1.58;;;1.33;;
11394;SDS011;5753;54.402;10.220;2022-09-17T17:51:00;9.07;;;2.90;;
11394;SDS011;5753;54.402;10.220;2022-09-17T17:53:27;3.50;;;2.37;;
11394;SDS011;5753;54.402;10.220;2022-09-17T17:55:57;2.88;;;1.85;;
11394;SDS011;5753;54.402;10.220;2022-09-17T17:58:24;2.55;;;1.33;;
11394;SDS011;5753;54.402;10.220;2022-09-17T18:00:51;3.03;;;1.35;;
11394;SDS011;5753;54.402;10.220;2022-09-17T18:03:17;3.28;;;2.38;;
11394;SDS011;5753;54.402;10.220;2022-09-17T18:05:44;3.20;;;1.63;;
11394;SDS011;5753;54.402;10.220;2022-09-17T18:08:10;1.33;;;1.08;;
11394;SDS011;5753;54.402;10.220;2022-09-17T18:10:36;2.90;;;1.58;;
11394;SDS011;5753;54.402;10.220;2022-09-17T18:13:02;3.90;;;1.83;;
11394;SDS011;5753;54.402;10.220;2022-09-17T18:15:28;4.90;;;2.50;;
11394;SDS011;5753;54.402;10.220;2022-09-17T18:17:54;2.50;;;2.30;;
11394;SDS011;5753;54.402;10.220;2022-09-17T18:20:20;7.32;;;1.77;;
11394;SDS011;5753;54.402;10.220;2022-09-17T18:22:46;0.63;;;0.63;;
11394;SDS011;5753;54.402;10.220;2022-09-17T18:25:12;1.60;;;0.47;;
11394;SDS011;5753;54.402;10.220;2022-09-17T18:27:38;2.47;;;0.80;;
11394;SDS011;5753;54.402;10.220;2022-09-17T18:30:05;3.90;;;0.80;;
11394;SDS011;5753;54.402;10.220;2022-09-17T18:32:31;9.88;;;1.65;;
11394;SDS011;5753;54.402;10.220;2022-09-17T18:34:57;1.17;;;0.63;;
11394;SDS011;5753;54.402;10.220;2022-09-17T18:37:23;2.65;;;1.05;;
11394;SDS011;5753;54.402;10.220;2022-09-17T18:39:52;1.33;;;1.00;;
11394;SDS011;5753;54.402;10.220;2022-09-17T18:42:18;3.33;;;2.30;;
11394;SDS011;5753;54.402;10.220;2022-09-17T18:44:44;2.58;;;1.55;;
11394;SDS011;5753;54.402;10.220;2022-09-17T18:47:10;9.25;;;2.30;;
11394;SDS011;5753;54.402;10.220;2022-09-17T18:49:36;2.35;;;1.45;;
11394;SDS011;5753;54.402;10.220;2022-09-17T18:52:02;9.57;;;2.30;;
11394;SDS011;5753;54.402;10.220;2022-09-17T18:54:29;3.90;;;1.27;;